Time;durP1;ratioP1;P1;durP2;ratioP2;P2;SDS_P1;SDS_P2;PMS_P1;PMS_P2;Temp;Humidity;BMP_temperature;BMP_pressure;BME280_temperature;BME280_humidity;BME280_pressure;Samples;Min_cycle;Max_cycle;Signal;HPM_P1;HPM_P2
2022/10/13 00:02:19;;;;;;;18.25;12.90;;;10.50;99.90;;;;;;5001209;28;20033;-61
2022/10/13 00:05:05;;;;;;;18.45;13.48;;;10.60;99.90;;;;;;5016710;28;20131;-58
2022/10/13 00:07:51;;;;;;;19.02;12.35;;;10.50;99.90;;;;;;5030553;28;20092;-56
2022/10/13 00:10:38;;;;;;;17.83;14.32;;;10.50;99.90;;;;;;5015617;28;20029;-59
2022/10/13 00:13:25;;;;;;;17.90;12.65;;;10.50;99.90;;;;;;5025537;28;20684;-58
2022/10/13 00:16:13;;;;;;;14.82;11.95;;;10.50;99.90;;;;;;5003921;28;20503;-60
2022/10/13 00:18:59;;;;;;;15.38;12.40;;;10.50;99.90;;;;;;5022930;28;20532;-61
2022/10/13 00:21:45;;;;;;;15.95;12.52;;;10.60;99.90;;;;;;5013253;28;20096;-58
2022/10/13 00:24:31;;;;;;;17.08;12.45;;;10.50;99.90;;;;;;5012516;28;20038;-59
2022/10/13 00:27:17;;;;;;;16.80;12.68;;;10.50;99.90;;;;;;5020098;28;20041;-57
2022/10/13 00:30:04;;;;;;;17.65;12.15;;;10.50;99.90;;;;;;5019786;28;20084;-56
2022/10/13 00:32:50;;;;;;;17.30;12.43;;;10.50;99.90;;;;;;4980588;28;20510;-58
2022/10/13 00:35:45;;;;;;;17.48;12.73;;;10.50;99.90;;;;;;5008707;28;20042;-60
2022/10/13 00:38:31;;;;;;;14.98;12.38;;;10.50;99.90;;;;;;4983488;28;20034;-55
2022/10/13 00:41:17;;;;;;;17.77;13.32;;;10.50;99.90;;;;;;5024889;28;20061;-56
2022/10/13 00:44:44;;;;;;;16.70;12.18;;;10.40;99.90;;;;;;5017136;28;20026;-57
2022/10/13 00:47:43;;;;;;;15.05;11.90;;;10.50;99.90;;;;;;5002334;28;20026;-58
2022/10/13 00:50:37;;;;;;;13.63;11.80;;;10.50;99.90;;;;;;5010098;28;20560;-57
2022/10/13 00:53:29;;;;;;;19.73;12.75;;;10.40;99.90;;;;;;5015204;28;20029;-58
2022/10/13 00:56:18;;;;;;;17.65;12.98;;;10.30;99.90;;;;;;5016298;28;20033;-58
2022/10/13 00:59:12;;;;;;;13.93;11.88;;;10.30;99.90;;;;;;5019231;28;20025;-56
2022/10/13 01:01:58;;;;;;;15.65;11.65;;;10.20;99.90;;;;;;5003588;28;20389;-54
2022/10/13 01:04:46;;;;;;;14.93;11.95;;;10.30;99.90;;;;;;5000826;28;20029;-61
2022/10/13 01:07:34;;;;;;;15.40;12.32;;;10.30;99.90;;;;;;5000145;28;20409;-54
2022/10/13 01:10:58;;;;;;;16.75;12.25;;;10.40;99.90;;;;;;4995574;28;20034;-59
2022/10/13 01:14:30;;;;;;;14.73;11.88;;;10.30;99.90;;;;;;5010175;28;20024;-56
2022/10/13 01:17:28;;;;;;;18.02;12.30;;;10.20;99.90;;;;;;5005551;28;20402;-54
2022/10/13 01:20:42;;;;;;;16.48;11.20;;;10.20;99.90;;;;;;5014685;28;20506;-52
2022/10/13 01:24:04;;;;;;;14.85;11.77;;;10.20;99.90;;;;;;5034369;28;20041;-55
2022/10/13 01:27:02;;;;;;;13.75;10.90;;;10.10;99.90;;;;;;5019017;28;20034;-56
2022/10/13 01:30:05;;;;;;;16.52;10.90;;;10.00;99.90;;;;;;5025239;28;20018;-56
2022/10/13 01:33:18;;;;;;;14.48;11.75;;;10.00;99.90;;;;;;5019958;28;20489;-60
2022/10/13 01:36:35;;;;;;;16.85;11.65;;;10.10;99.90;;;;;;5033149;28;20026;-55
2022/10/13 01:40:12;;;;;;;16.13;13.85;;;10.10;99.90;;;;;;5013532;28;20088;-53
2022/10/13 01:43:07;;;;;;;19.33;14.30;;;9.80;99.90;;;;;;5025582;28;20044;-60
2022/10/13 01:46:01;;;;;;;16.77;13.15;;;9.80;99.90;;;;;;5032491;28;20521;-57
2022/10/13 01:48:48;;;;;;;17.88;12.50;;;9.70;99.90;;;;;;4993605;28;20081;-56
2022/10/13 01:51:35;;;;;;;16.40;13.40;;;9.70;99.90;;;;;;4988004;28;20021;-56
2022/10/13 01:54:21;;;;;;;18.13;13.80;;;9.80;99.90;;;;;;5015016;28;20097;-52
2022/10/13 01:57:33;;;;;;;20.63;14.70;;;9.90;99.90;;;;;;5012810;28;20026;-56
2022/10/13 02:00:21;;;;;;;22.80;14.75;;;9.80;99.90;;;;;;5031850;28;20175;-55
2022/10/13 02:03:34;;;;;;;18.92;14.07;;;9.80;99.90;;;;;;5016101;28;20025;-59
2022/10/13 02:06:34;;;;;;;26.33;14.43;;;9.80;99.90;;;;;;5031628;28;20041;-59
2022/10/13 02:09:54;;;;;;;17.77;13.48;;;9.80;99.90;;;;;;5026144;28;20037;-59
2022/10/13 02:12:50;;;;;;;19.23;13.68;;;9.80;99.90;;;;;;4980865;28;20031;-58
2022/10/13 02:15:42;;;;;;;18.63;13.68;;;9.90;99.90;;;;;;5010759;28;20076;-55
2022/10/13 02:18:32;;;;;;;16.80;13.23;;;9.90;99.90;;;;;;5032844;28;20045;-57
2022/10/13 02:21:18;;;;;;;17.83;14.07;;;10.00;99.90;;;;;;5028061;28;20374;-56
2022/10/13 02:24:05;;;;;;;18.63;14.00;;;10.00;99.90;;;;;;5013997;28;20085;-52
2022/10/13 02:26:52;;;;;;;14.90;12.70;;;10.00;99.90;;;;;;5021011;28;20044;-54
2022/10/13 02:29:54;;;;;;;19.85;15.32;;;10.00;99.90;;;;;;5032972;28;20041;-59
2022/10/13 02:32:40;;;;;;;18.83;15.30;;;10.00;99.90;;;;;;5020768;28;20033;-59
2022/10/13 02:35:26;;;;;;;16.80;14.27;;;10.00;99.90;;;;;;5018017;28;20552;-61
2022/10/13 02:38:12;;;;;;;17.33;14.63;;;9.90;99.90;;;;;;5000091;28;20037;-55
2022/10/13 02:41:00;;;;;;;16.30;13.02;;;9.90;99.90;;;;;;5031127;28;20033;-55
2022/10/13 02:43:46;;;;;;;16.33;13.50;;;9.90;99.90;;;;;;5001026;28;20068;-58
2022/10/13 02:46:32;;;;;;;17.77;13.07;;;9.90;99.90;;;;;;5017883;28;20617;-56
2022/10/13 02:49:18;;;;;;;18.75;14.63;;;10.00;99.90;;;;;;5024422;28;20454;-57
2022/10/13 02:52:04;;;;;;;18.08;14.75;;;9.80;99.90;;;;;;5012718;28;20540;-54
2022/10/13 02:54:50;;;;;;;15.57;13.27;;;9.80;99.90;;;;;;5006800;28;20425;-55
2022/10/13 02:57:36;;;;;;;18.30;14.00;;;9.70;99.90;;;;;;5032331;28;20029;-53
2022/10/13 03:00:22;;;;;;;21.75;14.85;;;9.70;99.90;;;;;;5031913;28;20036;-57
2022/10/13 03:03:10;;;;;;;16.83;14.23;;;9.70;99.90;;;;;;5037295;28;20034;-61
2022/10/13 03:05:55;;;;;;;18.77;14.20;;;9.70;99.90;;;;;;5009714;28;20053;-61
2022/10/13 03:08:41;;;;;;;17.42;13.88;;;9.70;99.90;;;;;;4987536;28;20027;-58
2022/10/13 03:11:27;;;;;;;18.20;13.48;;;9.60;99.90;;;;;;5027119;28;20045;-56
2022/10/13 03:14:13;;;;;;;18.08;13.95;;;9.60;99.90;;;;;;4997654;28;20177;-58
2022/10/13 03:17:00;;;;;;;17.10;14.65;;;9.60;99.90;;;;;;5011564;28;20089;-58
2022/10/13 03:19:46;;;;;;;19.33;15.70;;;9.60;99.90;;;;;;5008059;28;20061;-58
2022/10/13 03:22:32;;;;;;;18.50;14.23;;;9.50;99.90;;;;;;5031396;28;20080;-57
2022/10/13 03:25:18;;;;;;;17.70;13.57;;;9.50;99.90;;;;;;5015412;28;20041;-60
2022/10/13 03:28:04;;;;;;;17.85;14.38;;;9.60;99.90;;;;;;5016775;28;20025;-59
2022/10/13 03:31:06;;;;;;;24.30;15.25;;;9.70;99.90;;;;;;4998994;28;20088;-55
2022/10/13 03:33:52;;;;;;;20.20;15.52;;;9.70;99.90;;;;;;4998466;28;20033;-59
2022/10/13 03:36:38;;;;;;;22.55;15.10;;;9.70;99.90;;;;;;4998699;28;20041;-57
2022/10/13 03:39:24;;;;;;;21.50;14.70;;;9.60;99.90;;;;;;5012805;28;20109;-60
2022/10/13 03:42:10;;;;;;;21.45;15.40;;;9.70;99.90;;;;;;5020563;28;20037;-60
2022/10/13 03:44:56;;;;;;;22.60;14.80;;;9.80;99.90;;;;;;5031709;28;20069;-59
2022/10/13 03:47:42;;;;;;;17.67;15.65;;;9.70;99.90;;;;;;4977562;28;20090;-58
2022/10/13 03:50:28;;;;;;;17.20;14.90;;;9.70;99.90;;;;;;4999710;28;20025;-57
2022/10/13 03:53:14;;;;;;;18.25;14.77;;;9.80;99.90;;;;;;5017200;28;20029;-55
2022/10/13 03:56:00;;;;;;;19.13;14.57;;;9.80;99.90;;;;;;5030600;28;20092;-54
2022/10/13 03:58:46;;;;;;;18.17;14.45;;;9.80;99.90;;;;;;5025323;28;20037;-54
2022/10/13 04:01:32;;;;;;;21.48;15.45;;;9.70;99.90;;;;;;5015062;28;20017;-53
2022/10/13 04:04:18;;;;;;;18.88;14.93;;;9.70;99.90;;;;;;5023494;28;20022;-54
2022/10/13 04:07:06;;;;;;;18.50;15.07;;;9.70;99.90;;;;;;5000268;28;20026;-52
2022/10/13 04:09:52;;;;;;;22.88;16.70;;;9.80;99.90;;;;;;5017754;28;20018;-60
2022/10/13 04:12:38;;;;;;;19.88;15.00;;;9.60;99.90;;;;;;5031042;28;20517;-54
2022/10/13 04:15:24;;;;;;;53.05;34.30;;;9.50;99.90;;;;;;5019842;28;20048;-57
2022/10/13 04:18:10;;;;;;;40.15;25.42;;;9.50;99.90;;;;;;5007221;28;20525;-57
2022/10/13 04:20:57;;;;;;;22.50;17.38;;;9.50;99.90;;;;;;5030910;28;20057;-58
2022/10/13 04:23:43;;;;;;;18.25;15.05;;;9.60;99.90;;;;;;5017040;28;20401;-55
2022/10/13 04:26:32;;;;;;;21.80;15.18;;;9.60;99.90;;;;;;5010578;28;20034;-55
2022/10/13 04:29:17;;;;;;;25.90;17.33;;;9.60;99.90;;;;;;5019013;28;20536;-54
2022/10/13 04:32:03;;;;;;;22.52;17.30;;;9.60;99.90;;;;;;5013344;28;20021;-51
2022/10/13 04:34:49;;;;;;;20.02;16.58;;;9.50;99.90;;;;;;5017621;28;20088;-57
2022/10/13 04:37:35;;;;;;;21.23;16.60;;;9.50;99.90;;;;;;4995966;28;20025;-58
2022/10/13 04:40:21;;;;;;;26.20;18.20;;;9.60;99.90;;;;;;5011961;28;20030;-56
2022/10/13 04:43:07;;;;;;;24.95;16.45;;;9.60;99.90;;;;;;5020198;28;20052;-56
2022/10/13 04:45:58;;;;;;;23.25;16.27;;;9.50;99.90;;;;;;4988513;28;20058;-59
2022/10/13 04:48:45;;;;;;;20.15;15.82;;;9.40;99.90;;;;;;4998340;28;20030;-54
2022/10/13 04:51:31;;;;;;;23.63;16.30;;;9.40;99.90;;;;;;4990210;28;20046;-61
2022/10/13 04:54:17;;;;;;;20.70;15.93;;;9.40;99.90;;;;;;4998015;28;20362;-59
2022/10/13 04:57:03;;;;;;;19.98;16.55;;;9.40;99.90;;;;;;5038265;28;20053;-59
2022/10/13 04:59:49;;;;;;;22.73;17.10;;;9.40;99.90;;;;;;5001694;28;20042;-57
2022/10/13 05:02:35;;;;;;;20.13;15.77;;;9.50;99.90;;;;;;5014869;28;20104;-56
2022/10/13 05:05:21;;;;;;;19.73;15.25;;;9.40;99.90;;;;;;5000038;28;20033;-62
2022/10/13 05:08:07;;;;;;;18.80;15.00;;;9.40;99.90;;;;;;5009314;28;20036;-54
2022/10/13 05:10:56;;;;;;;22.45;15.90;;;9.30;99.90;;;;;;5029465;28;20046;-55
2022/10/13 05:13:42;;;;;;;18.50;16.08;;;9.30;99.90;;;;;;5028730;28;20040;-56
2022/10/13 05:16:30;;;;;;;22.67;15.00;;;9.30;99.90;;;;;;5013124;28;20434;-56
2022/10/13 05:19:16;;;;;;;20.92;16.25;;;9.40;99.90;;;;;;4991834;28;20030;-61
2022/10/13 05:22:02;;;;;;;23.08;16.98;;;9.40;99.90;;;;;;5010615;28;20080;-61
2022/10/13 05:24:47;;;;;;;23.25;16.08;;;9.40;99.90;;;;;;5011651;28;20637;-61
2022/10/13 05:27:34;;;;;;;24.58;16.95;;;9.40;99.90;;;;;;5011252;28;20062;-57
2022/10/13 05:30:20;;;;;;;38.42;18.70;;;9.50;99.90;;;;;;5011842;28;20034;-57
2022/10/13 05:33:05;;;;;;;26.15;17.05;;;9.50;99.90;;;;;;5009966;28;20105;-59
2022/10/13 05:35:51;;;;;;;29.05;17.38;;;9.60;99.90;;;;;;5006402;28;20030;-57
2022/10/13 05:38:38;;;;;;;26.00;16.52;;;9.60;99.90;;;;;;5032411;28;20029;-58
2022/10/13 05:41:25;;;;;;;25.75;16.95;;;9.60;99.90;;;;;;5014679;28;20579;-55
2022/10/13 05:44:11;;;;;;;29.25;17.02;;;9.60;99.90;;;;;;5014216;28;20053;-61
2022/10/13 05:46:57;;;;;;;34.67;18.05;;;9.60;99.90;;;;;;5015100;28;20136;-60
2022/10/13 05:49:43;;;;;;;26.73;17.35;;;9.60;99.90;;;;;;5029240;28;20523;-56
2022/10/13 05:52:32;;;;;;;29.17;17.77;;;9.70;99.90;;;;;;5032146;28;20044;-60
2022/10/13 05:55:18;;;;;;;23.77;17.30;;;9.70;99.90;;;;;;4986990;28;20481;-58
2022/10/13 05:58:04;;;;;;;21.52;16.23;;;9.70;99.90;;;;;;5016098;28;20026;-57
2022/10/13 06:00:51;;;;;;;23.23;16.45;;;9.80;99.90;;;;;;5011954;28;20022;-58
2022/10/13 06:03:41;;;;;;;32.08;21.20;;;9.90;99.90;;;;;;5020267;28;20094;-58
2022/10/13 06:06:27;;;;;;;34.72;20.10;;;9.80;99.90;;;;;;5013272;28;20411;-59
2022/10/13 06:09:13;;;;;;;35.08;18.90;;;9.90;99.90;;;;;;5014821;28;20041;-53
2022/10/13 06:11:59;;;;;;;31.88;20.58;;;9.90;99.90;;;;;;5006295;28;20087;-56
2022/10/13 06:14:45;;;;;;;26.70;18.83;;;9.90;99.90;;;;;;4989044;28;20026;-54
2022/10/13 06:17:31;;;;;;;27.05;17.25;;;10.00;99.90;;;;;;4986539;28;20042;-56
2022/10/13 06:20:17;;;;;;;29.98;18.30;;;10.10;99.90;;;;;;5006932;28;20045;-56
2022/10/13 06:23:03;;;;;;;73.40;23.75;;;10.10;99.90;;;;;;5024012;28;20084;-56
2022/10/13 06:25:50;;;;;;;97.70;27.05;;;10.20;99.90;;;;;;5004458;28;20030;-56
2022/10/13 06:28:36;;;;;;;47.70;24.45;;;10.20;99.90;;;;;;5025017;28;20169;-62
2022/10/13 06:31:22;;;;;;;78.60;43.17;;;10.30;99.90;;;;;;5022354;28;20028;-60
2022/10/13 06:34:08;;;;;;;40.88;21.65;;;10.40;99.90;;;;;;5021124;28;20064;-57
2022/10/13 06:36:54;;;;;;;58.38;21.48;;;10.40;99.90;;;;;;5013991;28;20517;-56
2022/10/13 06:39:40;;;;;;;31.85;17.63;;;10.60;99.90;;;;;;5014180;28;20085;-55
2022/10/13 06:42:30;;;;;;;40.47;21.08;;;10.70;99.90;;;;;;5035903;28;20017;-61
2022/10/13 06:45:18;;;;;;;37.30;20.30;;;10.70;99.90;;;;;;5009336;28;20510;-61
2022/10/13 06:48:04;;;;;;;38.63;21.45;;;10.80;99.90;;;;;;5019577;28;20041;-59
2022/10/13 06:50:50;;;;;;;32.42;20.63;;;10.90;99.90;;;;;;4979381;28;20061;-60
2022/10/13 06:53:36;;;;;;;29.25;19.00;;;11.00;99.90;;;;;;5015906;28;20400;-58
2022/10/13 06:56:22;;;;;;;30.35;21.30;;;11.10;99.90;;;;;;5013692;28;20037;-59
2022/10/13 06:59:08;;;;;;;41.80;23.98;;;11.30;99.90;;;;;;5015266;28;20108;-59
2022/10/13 07:01:54;;;;;;;35.45;22.83;;;11.30;99.90;;;;;;5015207;28;20124;-57
2022/10/13 07:04:40;;;;;;;26.30;18.92;;;11.40;99.90;;;;;;5025422;28;20041;-61
2022/10/13 07:07:26;;;;;;;32.03;20.50;;;11.50;99.90;;;;;;5018432;28;20033;-59
2022/10/13 07:10:12;;;;;;;34.65;22.60;;;11.60;99.90;;;;;;5000135;28;20025;-62
2022/10/13 07:12:58;;;;;;;30.70;19.83;;;11.50;99.90;;;;;;5020162;28;20072;-56
2022/10/13 07:15:44;;;;;;;33.95;20.52;;;11.50;99.90;;;;;;5014111;28;20026;-60
2022/10/13 07:18:31;;;;;;;34.75;22.13;;;11.50;99.90;;;;;;4995358;28;20084;-60
2022/10/13 07:21:17;;;;;;;29.23;21.20;;;11.50;99.90;;;;;;5022129;28;20038;-61
2022/10/13 07:24:03;;;;;;;44.17;22.58;;;11.50;99.90;;;;;;5015719;28;20030;-61
2022/10/13 07:26:49;;;;;;;28.67;21.80;;;11.60;99.90;;;;;;5018530;28;20033;-62
2022/10/13 07:29:35;;;;;;;41.28;24.13;;;11.70;99.90;;;;;;5003019;28;20032;-60
2022/10/13 07:32:21;;;;;;;36.90;22.75;;;11.60;99.90;;;;;;5023465;28;20029;-60
2022/10/13 07:35:08;;;;;;;33.40;24.30;;;11.80;99.90;;;;;;5011939;28;20093;-62
2022/10/13 07:37:55;;;;;;;33.47;23.50;;;11.90;99.90;;;;;;5012284;28;20141;-58
2022/10/13 07:40:41;;;;;;;35.70;24.58;;;12.00;99.90;;;;;;4997562;28;20609;-58
2022/10/13 07:43:27;;;;;;;32.88;23.38;;;12.20;99.90;;;;;;5012571;28;20041;-55
2022/10/13 07:46:13;;;;;;;34.13;23.08;;;12.30;99.90;;;;;;4984246;28;20029;-62
2022/10/13 07:48:59;;;;;;;33.63;24.17;;;12.50;99.90;;;;;;5013486;28;20026;-57
2022/10/13 07:51:45;;;;;;;34.22;23.65;;;12.50;99.90;;;;;;5012155;28;20033;-56
2022/10/13 07:54:31;;;;;;;30.13;23.65;;;12.50;99.90;;;;;;5012381;28;20398;-61
2022/10/13 07:57:17;;;;;;;44.75;26.50;;;12.60;99.90;;;;;;4997662;28;20164;-59
2022/10/13 08:00:04;;;;;;;32.60;24.73;;;12.70;99.90;;;;;;5010553;28;20030;-56
2022/10/13 08:02:50;;;;;;;35.67;25.35;;;12.80;99.90;;;;;;5011865;28;20034;-58
2022/10/13 08:05:38;;;;;;;38.30;26.00;;;13.00;99.90;;;;;;5011434;28;20568;-59
2022/10/13 08:08:24;;;;;;;36.30;25.65;;;13.10;99.90;;;;;;4981597;28;20085;-58
2022/10/13 08:11:14;;;;;;;35.65;26.15;;;13.20;99.90;;;;;;4995740;28;20030;-61
2022/10/13 08:14:00;;;;;;;37.05;26.80;;;13.20;99.90;;;;;;5006577;28;20022;-62
2022/10/13 08:16:47;;;;;;;35.90;26.88;;;13.30;99.90;;;;;;5003476;28;20030;-63
2022/10/13 08:19:33;;;;;;;40.85;28.00;;;13.40;99.90;;;;;;5017383;28;20433;-61
2022/10/13 08:22:19;;;;;;;42.63;29.05;;;13.50;99.90;;;;;;5013417;28;20037;-60
2022/10/13 08:25:06;;;;;;;37.15;27.08;;;13.50;99.90;;;;;;5013807;28;20080;-61
2022/10/13 08:27:52;;;;;;;36.83;27.77;;;13.50;99.90;;;;;;5004957;28;20487;-63
2022/10/13 08:30:38;;;;;;;37.85;27.13;;;13.60;99.90;;;;;;5010297;28;20041;-63
2022/10/13 08:33:25;;;;;;;39.63;26.67;;;13.70;99.90;;;;;;4996016;28;20072;-63
2022/10/13 08:36:11;;;;;;;38.63;27.10;;;13.70;99.90;;;;;;5011070;28;20021;-63
2022/10/13 08:38:57;;;;;;;39.45;28.23;;;13.70;99.90;;;;;;4997649;28;20403;-64
2022/10/13 08:41:43;;;;;;;34.35;27.20;;;13.80;99.90;;;;;;5012161;28;20525;-63
2022/10/13 08:44:38;;;;;;;41.85;28.35;;;13.80;99.90;;;;;;5010011;28;20034;-61
2022/10/13 08:47:39;;;;;;;38.40;26.77;;;13.90;99.90;;;;;;5012491;28;20033;-60
2022/10/13 08:50:29;;;;;;;38.38;28.50;;;14.00;99.90;;;;;;5010736;28;20030;-60
2022/10/13 08:53:45;;;;;;;33.40;25.05;;;14.10;99.90;;;;;;5013547;28;20046;-62
2022/10/13 08:56:32;;;;;;;;;;;14.20;99.90;;;;;;5002007;28;20029;-63
2022/10/13 08:59:20;;;;;;;34.90;26.27;;;14.20;99.90;;;;;;5030917;28;19908;-60
2022/10/13 09:02:25;;;;;;;45.22;29.23;;;14.20;99.90;;;;;;5023821;28;20041;-59
2022/10/13 09:05:31;;;;;;;44.30;28.37;;;14.30;99.90;;;;;;5009943;28;20026;-63
2022/10/13 09:08:19;;;;;;;45.47;30.00;;;14.40;99.90;;;;;;5011554;28;20331;-62
2022/10/13 09:11:07;;;;;;;42.08;27.50;;;14.40;99.90;;;;;;4976965;28;20022;-62
2022/10/13 09:13:55;;;;;;;43.45;30.50;;;14.50;99.90;;;;;;4994544;28;20020;-61
2022/10/13 09:16:43;;;;;;;41.00;28.98;;;14.50;99.90;;;;;;4980505;28;20030;-62
2022/10/13 09:19:37;;;;;;;38.10;29.58;;;14.50;99.90;;;;;;4993637;28;20023;-62
2022/10/13 09:22:29;;;;;;;38.22;26.05;;;14.60;99.90;;;;;;4980724;28;20026;-60
2022/10/13 09:25:21;;;;;;;35.38;26.02;;;14.70;99.90;;;;;;5007259;28;20029;-62
2022/10/13 09:28:32;;;;;;;39.33;26.48;;;14.60;99.90;;;;;;4995750;28;20502;-63
2022/10/13 09:31:25;;;;;;;36.97;24.75;;;14.70;99.90;;;;;;5008691;28;20037;-62
2022/10/13 09:34:17;;;;;;;36.85;25.13;;;14.70;99.90;;;;;;5030024;28;20037;-63
2022/10/13 09:37:14;;;;;;;32.45;23.92;;;14.70;99.90;;;;;;4998827;28;20030;-59
2022/10/13 09:40:19;;;;;;;33.92;23.80;;;14.70;99.90;;;;;;5024070;28;20018;-59
2022/10/13 09:43:23;;;;;;;31.05;22.67;;;14.80;99.90;;;;;;5030688;28;20025;-62
2022/10/13 09:46:31;;;;;;;30.80;22.30;;;14.80;99.90;;;;;;5025338;28;20034;-62
2022/10/13 09:49:37;;;;;;;30.98;21.90;;;15.00;99.90;;;;;;5024258;28;20033;-62
2022/10/13 09:52:24;;;;;;;27.80;21.95;;;14.90;99.90;;;;;;5023748;28;20018;-61
2022/10/13 09:55:32;;;;;;;32.63;24.40;;;15.10;99.90;;;;;;5009482;28;20034;-65
2022/10/13 09:58:27;;;;;;;37.42;23.67;;;15.10;99.90;;;;;;4997109;28;20513;-60
2022/10/13 10:01:22;;;;;;;33.30;22.08;;;15.10;99.90;;;;;;5021862;28;20044;-58
2022/10/13 10:04:15;;;;;;;35.47;24.15;;;15.20;99.90;;;;;;5008945;28;20042;-58
2022/10/13 10:07:11;;;;;;;34.03;21.58;;;15.30;99.90;;;;;;4999966;28;20033;-62
2022/10/13 10:10:23;;;;;;;32.83;22.50;;;15.30;99.90;;;;;;4984116;28;20022;-60
2022/10/13 10:13:11;;;;;;;31.58;22.00;;;15.40;99.90;;;;;;4992253;28;20027;-57
2022/10/13 10:16:23;;;;;;;31.10;22.08;;;15.40;99.90;;;;;;5012788;28;20052;-57
2022/10/13 10:19:17;;;;;;;31.13;22.10;;;15.40;99.90;;;;;;5018350;28;20026;-59
2022/10/13 10:22:19;;;;;;;31.52;22.98;;;15.40;99.90;;;;;;5032913;28;20425;-59
2022/10/13 10:25:31;;;;;;;31.77;22.48;;;15.40;99.90;;;;;;5018168;28;20040;-61
2022/10/13 10:28:23;;;;;;;35.33;22.52;;;15.40;99.90;;;;;;5018487;28;20108;-62
2022/10/13 10:31:33;;;;;;;25.25;20.55;;;15.50;99.90;;;;;;5032871;28;20022;-59
2022/10/13 10:34:36;;;;;;;31.02;21.25;;;15.50;99.90;;;;;;5020146;28;20033;-58
2022/10/13 10:37:43;;;;;;;32.03;21.88;;;15.70;99.90;;;;;;4999269;28;20022;-61
2022/10/13 10:40:53;;;;;;;26.27;20.45;;;15.70;99.90;;;;;;4994563;28;20065;-58
2022/10/13 10:43:51;;;;;;;23.73;20.02;;;15.80;99.90;;;;;;5004870;28;20029;-58
2022/10/13 10:46:47;;;;;;;28.38;20.15;;;15.80;99.90;;;;;;5031976;28;20033;-60
2022/10/13 10:49:35;;;;;;;27.33;20.38;;;15.90;99.90;;;;;;5018710;28;20026;-59
2022/10/13 10:52:36;;;;;;;26.63;19.52;;;16.10;99.80;;;;;;5012681;28;20090;-60
2022/10/13 10:55:36;;;;;;;24.70;17.83;;;16.10;99.70;;;;;;5017550;28;20036;-61
2022/10/13 10:58:53;;;;;;;27.23;17.65;;;16.40;99.20;;;;;;5012384;28;20073;-61
2022/10/13 11:01:55;;;;;;;25.00;17.42;;;16.50;99.00;;;;;;5012092;28;20076;-60
2022/10/13 11:04:45;;;;;;;24.23;18.25;;;16.50;98.60;;;;;;5012463;28;20112;-59
2022/10/13 11:07:31;;;;;;;22.25;16.63;;;16.50;98.30;;;;;;5024304;28;20017;-62
2022/10/13 11:10:20;;;;;;;24.27;17.58;;;16.50;98.40;;;;;;5021843;28;20438;-60
2022/10/13 11:13:16;;;;;;;23.40;17.00;;;16.70;98.30;;;;;;5004334;28;20025;-62
2022/10/13 11:16:31;;;;;;;22.42;16.70;;;16.70;98.20;;;;;;5007697;28;20026;-60
2022/10/13 11:19:38;;;;;;;20.55;15.90;;;16.70;98.10;;;;;;5010736;28;20045;-59
2022/10/13 11:22:28;;;;;;;23.85;18.10;;;16.70;98.30;;;;;;5019845;28;20034;-57
2022/10/13 11:25:42;;;;;;;20.83;15.90;;;16.50;98.60;;;;;;5012327;28;20034;-60
2022/10/13 11:28:40;;;;;;;23.55;17.20;;;16.40;98.30;;;;;;5012221;28;20514;-60
2022/10/13 11:31:49;;;;;;;24.80;16.30;;;16.20;98.40;;;;;;5012564;28;20022;-58
2022/10/13 11:34:35;;;;;;;23.42;16.77;;;16.10;98.50;;;;;;5012075;28;20033;-60
2022/10/13 11:37:31;;;;;;;24.38;18.35;;;16.20;98.20;;;;;;5012353;28;20038;-58
2022/10/13 11:40:27;;;;;;;;;;;16.30;98.10;;;;;;4999344;28;20102;-58
2022/10/13 11:43:41;;;;;;;22.92;15.80;;;16.40;97.80;;;;;;5011593;28;19916;-59
2022/10/13 11:46:56;;;;;;;18.60;15.63;;;16.30;97.90;;;;;;5012283;28;20405;-61
2022/10/13 11:49:48;;;;;;;23.70;16.55;;;16.40;97.90;;;;;;4992223;28;20037;-61
2022/10/13 11:53:03;;;;;;;25.38;16.30;;;16.40;97.70;;;;;;5011779;28;20022;-59
2022/10/13 11:55:51;;;;;;;21.50;16.52;;;16.40;97.50;;;;;;5012268;28;20101;-60
2022/10/13 11:58:41;;;;;;;19.85;14.55;;;16.40;97.30;;;;;;5011130;28;20030;-60
2022/10/13 12:01:27;;;;;;;20.45;15.18;;;16.50;96.80;;;;;;4996439;28;20029;-63
2022/10/13 12:04:14;;;;;;;21.75;13.95;;;16.60;96.50;;;;;;5011860;28;20041;-60
2022/10/13 12:07:03;;;;;;;20.27;15.65;;;16.90;96.30;;;;;;5010861;28;20402;-61
2022/10/13 12:09:53;;;;;;;20.33;15.35;;;16.80;95.90;;;;;;5012090;28;20033;-61
2022/10/13 12:12:47;;;;;;;21.45;14.00;;;16.90;95.80;;;;;;5011358;28;20612;-61
2022/10/13 12:15:39;;;;;;;19.85;13.13;;;16.70;96.20;;;;;;5011909;28;20070;-60
2022/10/13 12:18:37;;;;;;;16.52;12.52;;;16.90;95.80;;;;;;4997150;28;20113;-59
2022/10/13 12:21:23;;;;;;;19.00;12.80;;;17.10;95.00;;;;;;4996644;28;20022;-64
2022/10/13 12:24:11;;;;;;;20.02;12.80;;;17.00;95.10;;;;;;5012067;28;20030;-60
2022/10/13 12:26:58;;;;;;;19.48;12.40;;;17.20;94.70;;;;;;5012139;28;20076;-60
2022/10/13 12:29:44;;;;;;;17.40;13.13;;;17.40;94.70;;;;;;5013739;28;20433;-60
2022/10/13 12:32:33;;;;;;;18.98;14.48;;;17.40;94.40;;;;;;4996780;28;20022;-60
2022/10/13 12:35:23;;;;;;;21.85;15.05;;;17.30;94.90;;;;;;5011273;28;20026;-60
2022/10/13 12:38:19;;;;;;;15.73;12.52;;;17.20;94.80;;;;;;5011760;28;20404;-59
2022/10/13 12:41:06;;;;;;;17.58;12.75;;;17.30;94.60;;;;;;5010882;28;20116;-58
2022/10/13 12:43:53;;;;;;;21.55;13.10;;;17.40;94.70;;;;;;5011111;28;20611;-59
2022/10/13 12:46:43;;;;;;;15.25;12.10;;;17.50;94.20;;;;;;5010680;28;20042;-59
2022/10/13 12:49:34;;;;;;;19.13;13.20;;;17.60;94.20;;;;;;5014916;28;20022;-57
2022/10/13 12:52:23;;;;;;;25.55;11.55;;;17.70;93.60;;;;;;5015193;28;20023;-59
2022/10/13 12:55:18;;;;;;;16.67;11.75;;;17.70;93.70;;;;;;5015636;28;20022;-58
2022/10/13 12:58:04;;;;;;;16.67;12.73;;;17.60;93.80;;;;;;5002602;28;20095;-60
2022/10/13 13:01:10;;;;;;;14.45;12.55;;;17.70;93.50;;;;;;5015945;28;20034;-60
2022/10/13 13:04:15;;;;;;;15.75;11.68;;;17.80;93.40;;;;;;5014872;28;20033;-59
2022/10/13 13:07:03;;;;;;;15.73;10.77;;;17.80;93.70;;;;;;5015501;28;20025;-61
2022/10/13 13:10:07;;;;;;;21.48;11.25;;;18.00;92.80;;;;;;5023433;28;20030;-61
2022/10/13 13:12:55;;;;;;;12.90;9.95;;;18.10;92.30;;;;;;5024055;28;20014;-61
2022/10/13 13:15:41;;;;;;;15.40;10.60;;;18.10;92.40;;;;;;5019610;28;20081;-59
2022/10/13 13:18:38;;;;;;;19.42;10.48;;;18.00;92.90;;;;;;5015381;28;20465;-62
2022/10/13 13:21:24;;;;;;;11.32;9.05;;;18.30;92.20;;;;;;5015192;28;20022;-60
2022/10/13 13:24:09;;;;;;;13.18;9.38;;;18.50;91.90;;;;;;5016660;28;20414;-60
2022/10/13 13:26:56;;;;;;;14.68;8.98;;;18.40;91.80;;;;;;5014845;28;20121;-60
2022/10/13 13:29:42;;;;;;;15.60;10.10;;;18.50;91.80;;;;;;5011424;28;20042;-60
2022/10/13 13:32:29;;;;;;;17.55;10.45;;;18.40;91.90;;;;;;5015429;28;20033;-60
2022/10/13 13:35:15;;;;;;;17.75;9.63;;;18.30;91.90;;;;;;5013973;28;20026;-57
2022/10/13 13:38:03;;;;;;;10.75;8.95;;;18.00;92.30;;;;;;5014957;28;20556;-60
2022/10/13 13:40:49;;;;;;;11.38;9.02;;;17.70;92.90;;;;;;5015062;28;20029;-57
2022/10/13 13:43:35;;;;;;;18.33;9.68;;;17.90;93.00;;;;;;5002234;28;20053;-60
2022/10/13 13:46:27;;;;;;;12.43;10.25;;;18.10;92.30;;;;;;5018275;28;20038;-59
2022/10/13 13:49:13;;;;;;;15.25;9.50;;;18.20;92.40;;;;;;5019914;28;20506;-61
2022/10/13 13:52:00;;;;;;;15.85;10.23;;;18.20;92.50;;;;;;5021885;28;20046;-60
2022/10/13 13:54:47;;;;;;;10.00;8.95;;;18.00;92.70;;;;;;5024569;28;20530;-60
2022/10/13 13:57:33;;;;;;;14.25;10.70;;;17.90;92.80;;;;;;5014739;28;20032;-62
2022/10/13 14:00:20;;;;;;;18.23;10.50;;;17.90;92.80;;;;;;5013702;28;20038;-60
2022/10/13 14:03:06;;;;;;;14.90;10.82;;;17.60;93.20;;;;;;5012472;28;20050;-62
2022/10/13 14:05:52;;;;;;;13.57;10.00;;;17.70;93.30;;;;;;5019173;28;20029;-61
2022/10/13 14:08:40;;;;;;;13.48;10.82;;;17.60;93.50;;;;;;5033144;28;20447;-61
2022/10/13 14:11:26;;;;;;;16.45;10.23;;;17.60;93.50;;;;;;5019643;28;20068;-62
2022/10/13 14:14:12;;;;;;;14.82;10.57;;;17.70;93.20;;;;;;5013443;28;20366;-61
2022/10/13 14:17:00;;;;;;;15.02;10.65;;;17.70;93.50;;;;;;4999999;28;20565;-67
2022/10/13 14:19:46;;;;;;;14.40;10.48;;;17.60;93.40;;;;;;5018754;28;20041;-63
2022/10/13 14:22:32;;;;;;;14.35;10.52;;;17.70;93.50;;;;;;4993766;28;20041;-61
2022/10/13 14:25:18;;;;;;;14.23;10.30;;;17.70;93.20;;;;;;5014089;28;20032;-62
2022/10/13 14:28:04;;;;;;;13.57;9.90;;;17.60;93.40;;;;;;5013985;28;20114;-61
2022/10/13 14:30:51;;;;;;;12.98;9.70;;;17.60;93.30;;;;;;5003497;28;20034;-63
2022/10/13 14:33:37;;;;;;;13.30;9.55;;;17.50;93.50;;;;;;5018741;28;20577;-63